MSC Regina — 3FGF9 — position and weather

sailwx.info

Track history (hours):
 
Tides and Currents Weather Stations Pressure Air Temp Water Temp Dewpoint Dewpoint Depression Visibility Wind Speed Wind Dir Waves Ship Positions

MSC Regina

Last reported at 2015-Jan-22 16:31 UTC. Time now 2015-Jan-26 14:31 UTC.
Position N 40°11' W 028°41'.

Length 259 m; draft 10.7 m.

Type: Ship (hazmat cat A). MMSI: 357332000.

Date/timePositionNaut miles runAvg speedWind from/ knotsBaromVisibWave heightAir tempDewpointWater temp
2015-Jan-22 16:31N 40°11' W 028°41'3918.7
2015-Jan-22 14:25N 40°01' W 027°51'1619.1
2015-Jan-22 13:33N 39°56' W 027°31'4116.6
2015-Jan-22 11:03N 39°45' W 026°39'9519.3
2015-Jan-22 06:09N 39°19' W 024°40'3819.3
2015-Jan-22 04:11N 39°08' W 023°53'1918.9
2015-Jan-22 03:12N 39°03' W 023°30'8418.7
2015-Jan-21 22:40N 38°41' W 021°46'57818.0
2015-Jan-20 14:33N 37°53' W 009°32'1818.1
2015-Jan-20 13:33N 37°54' W 009°08'1414.3
2015-Jan-20 12:33N 37°56' W 008°51'0 0.1
2015-Jan-20 11:32N 37°56' W 008°51'0 0.0
2015-Jan-20 10:32N 37°56' W 008°51'0 0.0
2015-Jan-20 09:29N 37°56' W 008°51'0 0.0
2015-Jan-20 08:29N 37°56' W 008°51'0 0.0
2015-Jan-20 07:32N 37°56' W 008°51'0 0.0
2015-Jan-20 06:32N 37°56' W 008°51'0 0.0
2015-Jan-20 05:29N 37°56' W 008°51'0 0.0
2015-Jan-20 04:31N 37°56' W 008°51'0 0.0
2015-Jan-20 03:26N 37°56' W 008°51'0 0.0
2015-Jan-20 02:20N 37°56' W 008°51'0 0.0
2015-Jan-20 01:22N 37°56' W 008°51'0 0.0
2015-Jan-20 00:32N 37°56' W 008°51'0 0.4
2015-Jan-19 23:33N 37°55' W 008°50'9 8.7
2015-Jan-19 22:33N 37°47' W 008°54'1717.4
2015-Jan-19 21:33N 37°32' W 009°03'1817.7
2015-Jan-19 20:32N 37°15' W 009°13'4611.1
2015-Jan-19 16:24N 36°37' W 008°42'37616.4
2015-Jan-18 17:33N 37°20' W 000°54'1918.9
2015-Jan-18 16:32N 37°32' W 000°37'1919.0
2015-Jan-18 15:33N 37°47' W 000°22'9815.8
2015-Jan-18 09:23N 39°25' W 000°16'4 4.0
2015-Jan-18 08:31N 39°26' W 000°20'0 0.0
2015-Jan-18 07:33N 39°26' W 000°20'0 0.0
2015-Jan-18 06:33N 39°26' W 000°20'0 0.0
2015-Jan-18 05:33N 39°26' W 000°20'0 0.0
2015-Jan-18 04:33N 39°26' W 000°20'0 0.0
2015-Jan-18 03:33N 39°26' W 000°20'0 0.0
2015-Jan-18 02:33N 39°26' W 000°20'0 0.0
2015-Jan-18 01:33N 39°26' W 000°20'0 0.0
2015-Jan-18 00:33N 39°26' W 000°20'0 0.0
2015-Jan-17 23:33N 39°26' W 000°20'0 0.0
2015-Jan-17 22:33N 39°26' W 000°20'0 0.0
2015-Jan-17 21:33N 39°26' W 000°20'0 0.0
2015-Jan-17 20:33N 39°26' W 000°20'0 0.0
2015-Jan-17 19:33N 39°26' W 000°20'0 0.0
2015-Jan-17 18:33N 39°26' W 000°20'0 0.0
2015-Jan-17 17:33N 39°26' W 000°20'0 0.0
2015-Jan-17 16:33N 39°26' W 000°20'0 0.0
2015-Jan-17 15:33N 39°26' W 000°20'0 0.0
2015-Jan-17 14:33N 39°26' W 000°20'0 0.0
2015-Jan-17 13:33N 39°26' W 000°20'0 0.0
2015-Jan-17 12:33N 39°26' W 000°20'0 0.1
2015-Jan-17 11:33N 39°26' W 000°20'0 0.2
2015-Jan-17 10:33N 39°26' W 000°20'0 0.0
2015-Jan-17 09:33N 39°26' W 000°20'0 0.0
2015-Jan-17 08:33N 39°26' W 000°20'0 0.0
2015-Jan-17 07:33N 39°26' W 000°20'0 0.0
2015-Jan-17 06:33N 39°26' W 000°20'0 0.0
2015-Jan-17 05:33N 39°26' W 000°20'0 0.0
2015-Jan-17 04:33N 39°26' W 000°20'0 0.0
2015-Jan-17 03:33N 39°26' W 000°20'0 0.0
2015-Jan-17 02:33N 39°26' W 000°20'0 0.0
2015-Jan-17 01:33N 39°26' W 000°20'0 0.0
2015-Jan-17 00:33N 39°26' W 000°20'0 0.0
2015-Jan-16 23:33N 39°26' W 000°20'0 0.0
2015-Jan-16 22:33N 39°26' W 000°20'0 0.0
2015-Jan-16 21:33N 39°26' W 000°20'0 0.0
2015-Jan-16 20:33N 39°26' W 000°20'2 2.4
2015-Jan-16 19:33N 39°26' W 000°17'2 2.0
2015-Jan-16 18:33N 39°25' W 000°14'5 4.7
2015-Jan-16 17:32N 39°23' W 000°09'1 0.8
2015-Jan-16 16:33N 39°23' W 000°10'9213.0
2015-Jan-16 09:31N 37°51' W 000°15'1616.5
2015-Jan-16 08:33N 37°38' W 000°26'1616.4
2015-Jan-16 07:33N 37°26' W 000°40'1716.8
2015-Jan-16 06:33N 37°15' W 000°56'22215.9
2015-Jan-15 16:33N 35°59' W 005°16'22816.0
2015-Jan-15 02:15N 37°34' W 009°35'1217.1
2015-Jan-15 01:33N 37°42' W 009°25'2019.8
2015-Jan-15 00:33N 37°51' W 009°02'1110.6
2015-Jan-14 23:33N 37°56' W 008°51'0 0.0
2015-Jan-14 22:33N 37°56' W 008°51'0 0.0
2015-Jan-14 21:33N 37°56' W 008°51'0 0.0
2015-Jan-14 20:33N 37°56' W 008°51'0 0.0
2015-Jan-14 19:33N 37°56' W 008°51'0 0.0
2015-Jan-14 18:33N 37°56' W 008°51'0 0.0
2015-Jan-14 17:33N 37°56' W 008°51'0 0.0
2015-Jan-14 16:33N 37°56' W 008°51'0 0.0
2015-Jan-14 15:33N 37°56' W 008°51'0 0.0
2015-Jan-14 14:33N 37°56' W 008°51'0 0.0
2015-Jan-14 13:33N 37°56' W 008°51'3 3.0
2015-Jan-14 12:33N 37°53' W 008°53'1717.2
2015-Jan-14 11:33N 37°56' W 009°14'1919.0
2015-Jan-14 10:33N 37°59' W 009°38'1919.0
2015-Jan-14 09:33N 38°01' W 010°02'  
Track history (hours):
 
Tides and Currents Weather Stations Pressure Air Temp Water Temp Dewpoint Dewpoint Depression Visibility Wind Speed Wind Dir Waves Ship Positions

MSC Regina

Last reported at 2015-Jan-22 16:31 UTC. Time now 2015-Jan-26 14:31 UTC.
Position N 40°11' W 028°41'.

Length 259 m; draft 10.7 m.

Type: Ship (hazmat cat A). MMSI: 357332000.

Date/timePositionNaut miles runAvg speedWind from/ knotsBaromVisibWave heightAir tempDewpointWater temp
2015-Jan-22 16:31N 40°11' W 028°41'3918.7
2015-Jan-22 14:25N 40°01' W 027°51'1619.1
2015-Jan-22 13:33N 39°56' W 027°31'4116.6
2015-Jan-22 11:03N 39°45' W 026°39'9519.3
2015-Jan-22 06:09N 39°19' W 024°40'3819.3
2015-Jan-22 04:11N 39°08' W 023°53'1918.9
2015-Jan-22 03:12N 39°03' W 023°30'8418.7
2015-Jan-21 22:40N 38°41' W 021°46'57818.0
2015-Jan-20 14:33N 37°53' W 009°32'1818.1
2015-Jan-20 13:33N 37°54' W 009°08'1414.3
2015-Jan-20 12:33N 37°56' W 008°51'0 0.1
2015-Jan-20 11:32N 37°56' W 008°51'0 0.0
2015-Jan-20 10:32N 37°56' W 008°51'0 0.0
2015-Jan-20 09:29N 37°56' W 008°51'0 0.0
2015-Jan-20 08:29N 37°56' W 008°51'0 0.0
2015-Jan-20 07:32N 37°56' W 008°51'0 0.0
2015-Jan-20 06:32N 37°56' W 008°51'0 0.0
2015-Jan-20 05:29N 37°56' W 008°51'0 0.0
2015-Jan-20 04:31N 37°56' W 008°51'0 0.0
2015-Jan-20 03:26N 37°56' W 008°51'0 0.0
2015-Jan-20 02:20N 37°56' W 008°51'0 0.0
2015-Jan-20 01:22N 37°56' W 008°51'0 0.0
2015-Jan-20 00:32N 37°56' W 008°51'0 0.4
2015-Jan-19 23:33N 37°55' W 008°50'9 8.7
2015-Jan-19 22:33N 37°47' W 008°54'1717.4
2015-Jan-19 21:33N 37°32' W 009°03'1817.7
2015-Jan-19 20:32N 37°15' W 009°13'4611.1
2015-Jan-19 16:24N 36°37' W 008°42'37616.4
2015-Jan-18 17:33N 37°20' W 000°54'1918.9
2015-Jan-18 16:32N 37°32' W 000°37'1919.0
2015-Jan-18 15:33N 37°47' W 000°22'9815.8
2015-Jan-18 09:23N 39°25' W 000°16'4 4.0
2015-Jan-18 08:31N 39°26' W 000°20'0 0.0
2015-Jan-18 07:33N 39°26' W 000°20'0 0.0
2015-Jan-18 06:33N 39°26' W 000°20'0 0.0
2015-Jan-18 05:33N 39°26' W 000°20'0 0.0
2015-Jan-18 04:33N 39°26' W 000°20'0 0.0
2015-Jan-18 03:33N 39°26' W 000°20'0 0.0
2015-Jan-18 02:33N 39°26' W 000°20'0 0.0
2015-Jan-18 01:33N 39°26' W 000°20'0 0.0
2015-Jan-18 00:33N 39°26' W 000°20'0 0.0
2015-Jan-17 23:33N 39°26' W 000°20'0 0.0
2015-Jan-17 22:33N 39°26' W 000°20'0 0.0
2015-Jan-17 21:33N 39°26' W 000°20'0 0.0
2015-Jan-17 20:33N 39°26' W 000°20'0 0.0
2015-Jan-17 19:33N 39°26' W 000°20'0 0.0
2015-Jan-17 18:33N 39°26' W 000°20'0 0.0
2015-Jan-17 17:33N 39°26' W 000°20'0 0.0
2015-Jan-17 16:33N 39°26' W 000°20'0 0.0
2015-Jan-17 15:33N 39°26' W 000°20'0 0.0
2015-Jan-17 14:33N 39°26' W 000°20'0 0.0
2015-Jan-17 13:33N 39°26' W 000°20'0 0.0
2015-Jan-17 12:33N 39°26' W 000°20'0 0.1
2015-Jan-17 11:33N 39°26' W 000°20'0 0.2
2015-Jan-17 10:33N 39°26' W 000°20'0 0.0
2015-Jan-17 09:33N 39°26' W 000°20'0 0.0
2015-Jan-17 08:33N 39°26' W 000°20'0 0.0
2015-Jan-17 07:33N 39°26' W 000°20'0 0.0
2015-Jan-17 06:33N 39°26' W 000°20'0 0.0
2015-Jan-17 05:33N 39°26' W 000°20'0 0.0
2015-Jan-17 04:33N 39°26' W 000°20'0 0.0
2015-Jan-17 03:33N 39°26' W 000°20'0 0.0
2015-Jan-17 02:33N 39°26' W 000°20'0 0.0
2015-Jan-17 01:33N 39°26' W 000°20'0 0.0
2015-Jan-17 00:33N 39°26' W 000°20'0 0.0
2015-Jan-16 23:33N 39°26' W 000°20'0 0.0
2015-Jan-16 22:33N 39°26' W 000°20'0 0.0
2015-Jan-16 21:33N 39°26' W 000°20'0 0.0
2015-Jan-16 20:33N 39°26' W 000°20'2 2.4
2015-Jan-16 19:33N 39°26' W 000°17'2 2.0
2015-Jan-16 18:33N 39°25' W 000°14'5 4.7
2015-Jan-16 17:32N 39°23' W 000°09'1 0.8
2015-Jan-16 16:33N 39°23' W 000°10'9213.0
2015-Jan-16 09:31N 37°51' W 000°15'1616.5
2015-Jan-16 08:33N 37°38' W 000°26'1616.4
2015-Jan-16 07:33N 37°26' W 000°40'1716.8
2015-Jan-16 06:33N 37°15' W 000°56'22215.9
2015-Jan-15 16:33N 35°59' W 005°16'22816.0
2015-Jan-15 02:15N 37°34' W 009°35'1217.1
2015-Jan-15 01:33N 37°42' W 009°25'2019.8
2015-Jan-15 00:33N 37°51' W 009°02'1110.6
2015-Jan-14 23:33N 37°56' W 008°51'0 0.0
2015-Jan-14 22:33N 37°56' W 008°51'0 0.0
2015-Jan-14 21:33N 37°56' W 008°51'0 0.0
2015-Jan-14 20:33N 37°56' W 008°51'0 0.0
2015-Jan-14 19:33N 37°56' W 008°51'0 0.0
2015-Jan-14 18:33N 37°56' W 008°51'0 0.0
2015-Jan-14 17:33N 37°56' W 008°51'0 0.0
2015-Jan-14 16:33N 37°56' W 008°51'0 0.0
2015-Jan-14 15:33N 37°56' W 008°51'0 0.0
2015-Jan-14 14:33N 37°56' W 008°51'0 0.0
2015-Jan-14 13:33N 37°56' W 008°51'3 3.0
2015-Jan-14 12:33N 37°53' W 008°53'1717.2
2015-Jan-14 11:33N 37°56' W 009°14'1919.0
2015-Jan-14 10:33N 37°59' W 009°38'1919.0
2015-Jan-14 09:33N 38°01' W 010°02'  

Dump ship's entire track history